NKS954 KLAS-KFLL
Flight info
| Callsign | NKS954 |
|---|---|
| Flight time | 4h 18m |
| Altitude | 35000 |
| Route | NIITZ4 SSKEE GUP TXO CIYAL MQP ARDIA LFK/N0441F370 ZIROR LEV Y290 DOWRY TEEKY4 |
| Aircraft | A320/M-SDE3FGHIRWY/LB1 |
Departure
| Time | 2026-05-07 20:44 |
|---|---|
| Airport | Harry Reid International Airport (KLAS) |
Arrival
| Time | 2026-05-08 01:03 |
|---|---|
| Airport | Fort Lauderdale Hollywood International Airport (KFLL) |
| Time | Latitude | Longitude | Altitude | Speed | Heading |
|---|---|---|---|---|---|
| 2026-05-07 20:02 | 36.08506 | -115.15479 | 2188 ft | 0 kts | 56° |
| 2026-05-07 20:30 | 36.08502 | -115.15485 | 2191 ft | 2 kts | 56° |
| 2026-05-07 20:30 | 36.08492 | -115.15505 | 2191 ft | 3 kts | 56° |
| 2026-05-07 20:30 | 36.08480 | -115.15526 | 2188 ft | 3 kts | 56° |
| 2026-05-07 20:30 | 36.08469 | -115.15546 | 2192 ft | 3 kts | 56° |
| 2026-05-07 20:31 | 36.08458 | -115.15567 | 2191 ft | 3 kts | 56° |
| 2026-05-07 20:31 | 36.08457 | -115.15569 | 2190 ft | 0 kts | 56° |
| 2026-05-07 20:36 | 36.08456 | -115.15567 | 2191 ft | 1 kts | 74° |
| 2026-05-07 20:36 | 36.08437 | -115.15560 | 2191 ft | 7 kts | 161° |
| 2026-05-07 20:36 | 36.08367 | -115.15526 | 2189 ft | 12 kts | 180° |
| 2026-05-07 20:37 | 36.08294 | -115.15573 | 2191 ft | 12 kts | 169° |
| 2026-05-07 20:37 | 36.08213 | -115.15528 | 2188 ft | 13 kts | 154° |
| 2026-05-07 20:37 | 36.08130 | -115.15481 | 2188 ft | 13 kts | 154° |
| 2026-05-07 20:37 | 36.08044 | -115.15431 | 2192 ft | 14 kts | 156° |
| 2026-05-07 20:38 | 36.07985 | -115.15396 | 2191 ft | 15 kts | 154° |
| 2026-05-07 20:38 | 36.07890 | -115.15342 | 2190 ft | 15 kts | 155° |
| 2026-05-07 20:38 | 36.07804 | -115.15218 | 2188 ft | 16 kts | 91° |
| 2026-05-07 20:38 | 36.07802 | -115.15076 | 2188 ft | 17 kts | 94° |
| 2026-05-07 20:39 | 36.07796 | -115.14978 | 2188 ft | 17 kts | 94° |
| 2026-05-07 20:39 | 36.07786 | -115.14826 | 2188 ft | 18 kts | 94° |
| 2026-05-07 20:39 | 36.07775 | -115.14664 | 2189 ft | 20 kts | 95° |
| 2026-05-07 20:39 | 36.07763 | -115.14495 | 2188 ft | 20 kts | 95° |
| 2026-05-07 20:40 | 36.07753 | -115.14320 | 2188 ft | 21 kts | 91° |
| 2026-05-07 20:40 | 36.07754 | -115.14136 | 2188 ft | 22 kts | 90° |
| 2026-05-07 20:40 | 36.07754 | -115.13956 | 2189 ft | 19 kts | 90° |
| 2026-05-07 20:40 | 36.07754 | -115.13787 | 2189 ft | 20 kts | 89° |
| 2026-05-07 20:41 | 36.07754 | -115.13612 | 2189 ft | 21 kts | 90° |
| 2026-05-07 20:41 | 36.07755 | -115.13433 | 2190 ft | 21 kts | 90° |
| 2026-05-07 20:41 | 36.07754 | -115.13248 | 2189 ft | 22 kts | 91° |
| 2026-05-07 20:41 | 36.07755 | -115.13055 | 2188 ft | 23 kts | 90° |
| 2026-05-07 20:42 | 36.07754 | -115.12857 | 2188 ft | 23 kts | 90° |
| 2026-05-07 20:42 | 36.07755 | -115.12651 | 2187 ft | 24 kts | 90° |
| 2026-05-07 20:42 | 36.07755 | -115.12442 | 2188 ft | 24 kts | 90° |
| 2026-05-07 20:42 | 36.07755 | -115.12251 | 2188 ft | 16 kts | 90° |
| 2026-05-07 20:43 | 36.07740 | -115.12137 | 2192 ft | 12 kts | 131° |
| 2026-05-07 20:43 | 36.07663 | -115.12127 | 2190 ft | 11 kts | 191° |
| 2026-05-07 20:43 | 36.07643 | -115.12175 | 2190 ft | 0 kts | 270° |
| 2026-05-07 20:43 | 36.07643 | -115.12273 | 2189 ft | 41 kts | 269° |
| 2026-05-07 20:44 | 36.07642 | -115.12901 | 2188 ft | 102 kts | 270° |
| 2026-05-07 20:44 | 36.07642 | -115.13984 | 2189 ft | 148 kts | 269° |
| 2026-05-07 20:44 | 36.07637 | -115.15414 | 2233 ft | 180 kts | 270° |
| 2026-05-07 20:44 | 36.07642 | -115.16924 | 2937 ft | 173 kts | 270° |
| 2026-05-07 20:45 | 36.07640 | -115.18413 | 3532 ft | 174 kts | 270° |
| 2026-05-07 20:45 | 36.07635 | -115.19950 | 3961 ft | 188 kts | 270° |
| 2026-05-07 20:45 | 36.07510 | -115.21622 | 4238 ft | 209 kts | 259° |
| 2026-05-07 20:45 | 36.07146 | -115.23464 | 4462 ft | 232 kts | 247° |
| 2026-05-07 20:46 | 36.06288 | -115.25252 | 4713 ft | 251 kts | 228° |
| 2026-05-07 20:46 | 36.04916 | -115.26697 | 5029 ft | 270 kts | 209° |
| 2026-05-07 20:46 | 36.03155 | -115.27600 | 5598 ft | 277 kts | 200° |
| 2026-05-07 20:46 | 36.01284 | -115.28217 | 6317 ft | 281 kts | 186° |
| 2026-05-07 20:47 | 35.99316 | -115.28121 | 6991 ft | 286 kts | 168° |
| 2026-05-07 20:47 | 35.97442 | -115.27247 | 7613 ft | 292 kts | 149° |
| 2026-05-07 20:47 | 35.95840 | -115.25688 | 8264 ft | 296 kts | 137° |
| 2026-05-07 20:47 | 35.94297 | -115.23979 | 8910 ft | 301 kts | 137° |
| 2026-05-07 20:48 | 35.92720 | -115.22240 | 9543 ft | 305 kts | 138° |
| 2026-05-07 20:48 | 35.91272 | -115.20351 | 10136 ft | 311 kts | 126° |
| 2026-05-07 20:48 | 35.90059 | -115.18038 | 10299 ft | 332 kts | 119° |
| 2026-05-07 20:48 | 35.88853 | -115.15531 | 10689 ft | 342 kts | 119° |
| 2026-05-07 20:49 | 35.87729 | -115.12925 | 11276 ft | 344 kts | 110° |
| 2026-05-07 20:49 | 35.87035 | -115.10103 | 11914 ft | 344 kts | 98° |
| 2026-05-07 20:49 | 35.86816 | -115.07175 | 12536 ft | 344 kts | 87° |
| 2026-05-07 20:49 | 35.86966 | -115.04233 | 13164 ft | 345 kts | 84° |
| 2026-05-07 20:50 | 35.87133 | -115.01315 | 13805 ft | 346 kts | 84° |
| 2026-05-07 20:50 | 35.87296 | -114.98340 | 14295 ft | 348 kts | 84° |
| 2026-05-07 20:50 | 35.87458 | -114.95349 | 14818 ft | 350 kts | 84° |
| 2026-05-07 20:50 | 35.87618 | -114.92342 | 15339 ft | 353 kts | 84° |
| 2026-05-07 20:51 | 35.87778 | -114.89316 | 15852 ft | 355 kts | 84° |
| 2026-05-07 20:51 | 35.87940 | -114.86270 | 16365 ft | 357 kts | 84° |
| 2026-05-07 20:51 | 35.88103 | -114.83194 | 16878 ft | 360 kts | 84° |
| 2026-05-07 20:51 | 35.88268 | -114.80105 | 17385 ft | 363 kts | 84° |
| 2026-05-07 20:52 | 35.88435 | -114.76994 | 17904 ft | 365 kts | 84° |
| 2026-05-07 20:52 | 35.88607 | -114.73855 | 18391 ft | 368 kts | 84° |
| 2026-05-07 20:52 | 35.88777 | -114.70695 | 18833 ft | 370 kts | 84° |
| 2026-05-07 20:52 | 35.88944 | -114.67518 | 19288 ft | 372 kts | 84° |
| 2026-05-07 20:53 | 35.89108 | -114.64364 | 19724 ft | 375 kts | 84° |
| 2026-05-07 20:53 | 35.89273 | -114.61143 | 20159 ft | 377 kts | 84° |
| 2026-05-07 20:53 | 35.89439 | -114.57907 | 20588 ft | 379 kts | 83° |
| 2026-05-07 20:53 | 35.89607 | -114.54647 | 21004 ft | 382 kts | 83° |
| 2026-05-07 20:54 | 35.89753 | -114.51368 | 21405 ft | 385 kts | 85° |
| 2026-05-07 20:54 | 35.89802 | -114.48055 | 21813 ft | 388 kts | 87° |
| 2026-05-07 20:54 | 35.89784 | -114.44716 | 22202 ft | 391 kts | 88° |
| 2026-05-07 20:54 | 35.89732 | -114.41358 | 22601 ft | 393 kts | 88° |
| 2026-05-07 20:55 | 35.89674 | -114.37977 | 23023 ft | 396 kts | 88° |
| 2026-05-07 20:55 | 35.89624 | -114.34575 | 23422 ft | 398 kts | 87° |
| 2026-05-07 20:55 | 35.89589 | -114.31154 | 23766 ft | 400 kts | 87° |
| 2026-05-07 20:55 | 35.89564 | -114.27714 | 24112 ft | 402 kts | 87° |
| 2026-05-07 20:56 | 35.89543 | -114.24267 | 24468 ft | 403 kts | 87° |
| 2026-05-07 20:56 | 35.89522 | -114.20796 | 24816 ft | 405 kts | 87° |
| 2026-05-07 20:56 | 35.89502 | -114.17315 | 25156 ft | 407 kts | 87° |
| 2026-05-07 20:56 | 35.89479 | -114.13816 | 25493 ft | 408 kts | 87° |
| 2026-05-07 20:57 | 35.89453 | -114.10305 | 25840 ft | 410 kts | 87° |
| 2026-05-07 20:57 | 35.89425 | -114.06778 | 26186 ft | 412 kts | 87° |
| 2026-05-07 20:57 | 35.89394 | -114.03236 | 26511 ft | 414 kts | 87° |
| 2026-05-07 20:57 | 35.89363 | -113.99683 | 26841 ft | 415 kts | 87° |
| 2026-05-07 20:58 | 35.89332 | -113.96111 | 27151 ft | 418 kts | 87° |
| 2026-05-07 20:58 | 35.89301 | -113.92523 | 27471 ft | 419 kts | 87° |
| 2026-05-07 20:58 | 35.89268 | -113.88929 | 27807 ft | 420 kts | 87° |
| 2026-05-07 20:58 | 35.89234 | -113.85306 | 28129 ft | 422 kts | 86° |
| 2026-05-07 20:59 | 35.89199 | -113.81681 | 28430 ft | 424 kts | 87° |
| 2026-05-07 20:59 | 35.89164 | -113.78037 | 28746 ft | 426 kts | 87° |
| 2026-05-07 20:59 | 35.89127 | -113.74428 | 29062 ft | 427 kts | 86° |
| 2026-05-07 20:59 | 35.89087 | -113.70749 | 29353 ft | 429 kts | 87° |
| 2026-05-07 21:00 | 35.89046 | -113.67058 | 29641 ft | 431 kts | 87° |
| 2026-05-07 21:00 | 35.89003 | -113.63347 | 29931 ft | 433 kts | 87° |
| 2026-05-07 21:00 | 35.88956 | -113.59619 | 30195 ft | 433 kts | 87° |
| 2026-05-07 21:00 | 35.88907 | -113.55945 | 30354 ft | 434 kts | 87° |
| 2026-05-07 21:01 | 35.88706 | -113.52213 | 30589 ft | 440 kts | 94° |
| 2026-05-07 21:01 | 35.88187 | -113.48477 | 30833 ft | 442 kts | 96° |
| 2026-05-07 21:01 | 35.87649 | -113.44727 | 31079 ft | 444 kts | 96° |
| 2026-05-07 21:01 | 35.87108 | -113.40968 | 31319 ft | 446 kts | 96° |
| 2026-05-07 21:02 | 35.86562 | -113.37177 | 31551 ft | 448 kts | 96° |
| 2026-05-07 21:02 | 35.86019 | -113.33411 | 31816 ft | 450 kts | 96° |
| 2026-05-07 21:02 | 35.85468 | -113.29595 | 32110 ft | 450 kts | 96° |
| 2026-05-07 21:02 | 35.84923 | -113.25838 | 32489 ft | 448 kts | 96° |
| 2026-05-07 21:03 | 35.84372 | -113.22050 | 32887 ft | 446 kts | 96° |
| 2026-05-07 21:03 | 35.83822 | -113.18277 | 33275 ft | 445 kts | 96° |
| 2026-05-07 21:03 | 35.83278 | -113.14542 | 33649 ft | 443 kts | 96° |
| 2026-05-07 21:03 | 35.82736 | -113.10835 | 33995 ft | 442 kts | 96° |
| 2026-05-07 21:04 | 35.82192 | -113.07103 | 34308 ft | 442 kts | 96° |
| 2026-05-07 21:04 | 35.81647 | -113.03364 | 34605 ft | 441 kts | 96° |
| 2026-05-07 21:04 | 35.81103 | -112.99641 | 34899 ft | 440 kts | 96° |
| 2026-05-07 21:04 | 35.80562 | -112.95955 | 35005 ft | 437 kts | 96° |
| 2026-05-07 21:05 | 35.80019 | -112.92296 | 35021 ft | 429 kts | 96° |
| 2026-05-07 21:05 | 35.78953 | -112.85118 | 35021 ft | 426 kts | 96° |
| 2026-05-07 21:06 | 35.77887 | -112.77947 | 35035 ft | 425 kts | 96° |
| 2026-05-07 21:06 | 35.76821 | -112.70802 | 35027 ft | 425 kts | 96° |
| 2026-05-07 21:07 | 35.75754 | -112.63667 | 35029 ft | 425 kts | 96° |
| 2026-05-07 21:07 | 35.74679 | -112.56477 | 35049 ft | 425 kts | 96° |
| 2026-05-07 21:08 | 35.73609 | -112.49348 | 35047 ft | 425 kts | 96° |
| 2026-05-07 21:08 | 35.72521 | -112.42170 | 35052 ft | 425 kts | 96° |
| 2026-05-07 21:09 | 35.71437 | -112.35061 | 35044 ft | 424 kts | 96° |
| 2026-05-07 21:09 | 35.70348 | -112.27917 | 35043 ft | 424 kts | 96° |
| 2026-05-07 21:10 | 35.69260 | -112.20796 | 35036 ft | 424 kts | 96° |
| 2026-05-07 21:10 | 35.68160 | -112.13625 | 35037 ft | 425 kts | 96° |
| 2026-05-07 21:11 | 35.67060 | -112.06524 | 35038 ft | 425 kts | 96° |
| 2026-05-07 21:11 | 35.65395 | -111.95828 | 35043 ft | 425 kts | 96° |
| 2026-05-07 21:12 | 35.64283 | -111.88693 | 35062 ft | 425 kts | 96° |
| 2026-05-07 21:12 | 35.63711 | -111.85031 | 35067 ft | 425 kts | 96° |
| 2026-05-07 21:13 | 35.63138 | -111.78264 | 35068 ft | 420 kts | 88° |
| 2026-05-07 21:13 | 35.62849 | -111.71091 | 35065 ft | 420 kts | 89° |
| 2026-05-07 21:14 | 35.62536 | -111.63907 | 35064 ft | 420 kts | 89° |
| 2026-05-07 21:14 | 35.62227 | -111.56723 | 35069 ft | 420 kts | 89° |
| 2026-05-07 21:15 | 35.61917 | -111.49571 | 35052 ft | 420 kts | 89° |
| 2026-05-07 21:15 | 35.61598 | -111.42379 | 35051 ft | 420 kts | 89° |
| 2026-05-07 21:16 | 35.61277 | -111.35201 | 35039 ft | 420 kts | 89° |
| 2026-05-07 21:16 | 35.60960 | -111.28062 | 35039 ft | 420 kts | 89° |
| 2026-05-07 21:17 | 35.60635 | -111.20873 | 35024 ft | 420 kts | 89° |
| 2026-05-07 21:17 | 35.60304 | -111.13727 | 35026 ft | 421 kts | 89° |
| 2026-05-07 21:18 | 35.59965 | -111.06528 | 35022 ft | 421 kts | 89° |
| 2026-05-07 21:18 | 35.59623 | -110.99342 | 35020 ft | 421 kts | 89° |
| 2026-05-07 21:19 | 35.59279 | -110.92177 | 35027 ft | 421 kts | 89° |
| 2026-05-07 21:19 | 35.58928 | -110.85028 | 35029 ft | 420 kts | 89° |
| 2026-05-07 21:20 | 35.58574 | -110.77832 | 35028 ft | 420 kts | 90° |
| 2026-05-07 21:20 | 35.58222 | -110.70696 | 35021 ft | 420 kts | 90° |
| 2026-05-07 21:21 | 35.57855 | -110.63494 | 35014 ft | 420 kts | 90° |
| 2026-05-07 21:21 | 35.57487 | -110.56350 | 35012 ft | 421 kts | 90° |
| 2026-05-07 21:22 | 35.57117 | -110.49166 | 35014 ft | 421 kts | 90° |
| 2026-05-07 21:22 | 35.56741 | -110.41979 | 35011 ft | 422 kts | 90° |
| 2026-05-07 21:23 | 35.56357 | -110.34821 | 35013 ft | 422 kts | 90° |
| 2026-05-07 21:23 | 35.55971 | -110.27609 | 35013 ft | 423 kts | 90° |
| 2026-05-07 21:24 | 35.55586 | -110.20397 | 35014 ft | 423 kts | 90° |
| 2026-05-07 21:24 | 35.55194 | -110.13216 | 35021 ft | 423 kts | 90° |
| 2026-05-07 21:25 | 35.54795 | -110.05988 | 35010 ft | 424 kts | 90° |
| 2026-05-07 21:25 | 35.54456 | -109.99977 | 35012 ft | 424 kts | 90° |
| 2026-05-07 21:26 | 35.53977 | -109.91549 | 35011 ft | 424 kts | 91° |
| 2026-05-07 21:26 | 35.53635 | -109.85528 | 35014 ft | 424 kts | 91° |
| 2026-05-07 21:27 | 35.53222 | -109.78334 | 35017 ft | 424 kts | 91° |
| 2026-05-07 21:27 | 35.52801 | -109.71099 | 35014 ft | 424 kts | 91° |
| 2026-05-07 21:28 | 35.52374 | -109.63906 | 35008 ft | 424 kts | 91° |
| 2026-05-07 21:28 | 35.51944 | -109.56663 | 35005 ft | 424 kts | 91° |
| 2026-05-07 21:29 | 35.51516 | -109.49428 | 35000 ft | 424 kts | 91° |
| 2026-05-07 21:29 | 35.51078 | -109.42197 | 35026 ft | 425 kts | 91° |
| 2026-05-07 21:30 | 35.50634 | -109.35009 | 35050 ft | 426 kts | 91° |
| 2026-05-07 21:30 | 35.50184 | -109.27752 | 35082 ft | 426 kts | 91° |
| 2026-05-07 21:31 | 35.49725 | -109.20493 | 35111 ft | 426 kts | 91° |
| 2026-05-07 21:31 | 35.49272 | -109.13234 | 35129 ft | 426 kts | 91° |
| 2026-05-07 21:32 | 35.48816 | -109.06012 | 35120 ft | 427 kts | 92° |
| 2026-05-07 21:32 | 35.48344 | -108.98733 | 35125 ft | 428 kts | 92° |
| 2026-05-07 21:33 | 35.47868 | -108.91453 | 35170 ft | 428 kts | 92° |
| 2026-05-07 21:33 | 35.47274 | -108.84171 | 35199 ft | 429 kts | 95° |
| 2026-05-07 21:34 | 35.46311 | -108.76941 | 35201 ft | 429 kts | 98° |
| 2026-05-07 21:34 | 35.45769 | -108.73339 | 34979 ft | 430 kts | 98° |
| 2026-05-07 21:34 | 35.45224 | -108.69731 | 34978 ft | 430 kts | 98° |
| 2026-05-07 21:35 | 35.44179 | -108.62508 | 34977 ft | 430 kts | 97° |
| 2026-05-07 21:35 | 35.43189 | -108.55318 | 34992 ft | 430 kts | 97° |
| 2026-05-07 21:36 | 35.42195 | -108.48078 | 34995 ft | 430 kts | 97° |
| 2026-05-07 21:36 | 35.41189 | -108.40843 | 34993 ft | 431 kts | 98° |
| 2026-05-07 21:37 | 35.40174 | -108.33593 | 34982 ft | 432 kts | 98° |
| 2026-05-07 21:37 | 35.39150 | -108.26335 | 34981 ft | 432 kts | 98° |
| 2026-05-07 21:38 | 35.38123 | -108.19068 | 35018 ft | 432 kts | 98° |
| 2026-05-07 21:38 | 35.37093 | -108.11851 | 35052 ft | 433 kts | 98° |
| 2026-05-07 21:39 | 35.36048 | -108.04576 | 35098 ft | 432 kts | 98° |
| 2026-05-07 21:39 | 35.35006 | -107.97322 | 35131 ft | 432 kts | 98° |
| 2026-05-07 21:40 | 35.33959 | -107.90064 | 35140 ft | 431 kts | 98° |
| 2026-05-07 21:40 | 35.32919 | -107.82872 | 35138 ft | 431 kts | 98° |
| 2026-05-07 21:41 | 35.32397 | -107.79254 | 35013 ft | 431 kts | 98° |
| 2026-05-07 21:41 | 35.31874 | -107.75641 | 34998 ft | 431 kts | 98° |
| 2026-05-07 21:41 | 35.30818 | -107.68405 | 34997 ft | 432 kts | 98° |
| 2026-05-07 21:42 | 35.29755 | -107.61162 | 34992 ft | 432 kts | 98° |
| 2026-05-07 21:42 | 35.28693 | -107.53957 | 34997 ft | 433 kts | 98° |
| 2026-05-07 21:43 | 35.27609 | -107.46692 | 35001 ft | 433 kts | 98° |
| 2026-05-07 21:43 | 35.26532 | -107.39431 | 34999 ft | 434 kts | 99° |
| 2026-05-07 21:44 | 35.25453 | -107.32153 | 34982 ft | 435 kts | 99° |
| 2026-05-07 21:44 | 35.24367 | -107.24907 | 34984 ft | 435 kts | 99° |
| 2026-05-07 21:45 | 35.23266 | -107.17626 | 34990 ft | 436 kts | 99° |
| 2026-05-07 21:45 | 35.22166 | -107.10325 | 34986 ft | 436 kts | 99° |
| 2026-05-07 21:46 | 35.21054 | -107.03026 | 34985 ft | 436 kts | 100° |
| 2026-05-07 21:46 | 35.19940 | -106.95717 | 34976 ft | 437 kts | 100° |
| 2026-05-07 21:47 | 35.18828 | -106.88457 | 34987 ft | 437 kts | 100° |
| 2026-05-07 21:47 | 35.17702 | -106.81134 | 34985 ft | 438 kts | 100° |
| 2026-05-07 21:48 | 35.16575 | -106.73822 | 34992 ft | 438 kts | 100° |
| 2026-05-07 21:48 | 35.15442 | -106.66503 | 35152 ft | 438 kts | 101° |
| 2026-05-07 21:49 | 35.14297 | -106.59164 | 35135 ft | 439 kts | 101° |
| 2026-05-07 21:49 | 35.13152 | -106.51860 | 35133 ft | 440 kts | 101° |
| 2026-05-07 21:50 | 35.12001 | -106.44511 | 35118 ft | 440 kts | 101° |
| 2026-05-07 21:50 | 35.10846 | -106.37168 | 35078 ft | 440 kts | 101° |
| 2026-05-07 21:51 | 35.09686 | -106.29860 | 35046 ft | 441 kts | 102° |
| 2026-05-07 21:51 | 35.08512 | -106.22480 | 35010 ft | 443 kts | 102° |
| 2026-05-07 21:52 | 35.07332 | -106.15082 | 34992 ft | 444 kts | 102° |
| 2026-05-07 21:52 | 35.06154 | -106.07722 | 34998 ft | 444 kts | 102° |
| 2026-05-07 21:53 | 35.04964 | -106.00316 | 35002 ft | 445 kts | 102° |
| 2026-05-07 21:53 | 35.03767 | -105.92888 | 34988 ft | 446 kts | 103° |
| 2026-05-07 21:54 | 35.02558 | -105.85440 | 34985 ft | 448 kts | 103° |
| 2026-05-07 21:54 | 35.01333 | -105.77953 | 34998 ft | 449 kts | 103° |
| 2026-05-07 21:55 | 35.00110 | -105.70465 | 35003 ft | 450 kts | 103° |
| 2026-05-07 21:55 | 34.98894 | -105.63019 | 34991 ft | 451 kts | 103° |
| 2026-05-07 21:56 | 34.97651 | -105.55502 | 34982 ft | 453 kts | 104° |
| 2026-05-07 21:56 | 34.96395 | -105.47959 | 34966 ft | 454 kts | 103° |
| 2026-05-07 21:57 | 34.95142 | -105.40396 | 34969 ft | 455 kts | 103° |
| 2026-05-07 21:57 | 34.93884 | -105.32807 | 34955 ft | 456 kts | 103° |
| 2026-05-07 21:58 | 34.92620 | -105.25270 | 34951 ft | 457 kts | 104° |
| 2026-05-07 21:58 | 34.91332 | -105.17663 | 34927 ft | 460 kts | 104° |
| 2026-05-07 21:59 | 34.90041 | -105.10012 | 34931 ft | 461 kts | 104° |
| 2026-05-07 21:59 | 34.88741 | -105.02346 | 34926 ft | 462 kts | 104° |
| 2026-05-07 22:00 | 34.87433 | -104.94663 | 34969 ft | 463 kts | 104° |
| 2026-05-07 22:00 | 34.86126 | -104.87014 | 34984 ft | 464 kts | 105° |
| 2026-05-07 22:01 | 34.84803 | -104.79283 | 35013 ft | 466 kts | 105° |
| 2026-05-07 22:01 | 34.83477 | -104.71540 | 35003 ft | 468 kts | 107° |
| 2026-05-07 22:02 | 34.82124 | -104.63737 | 35008 ft | 472 kts | 107° |
| 2026-05-07 22:02 | 34.80767 | -104.55965 | 34988 ft | 474 kts | 107° |
| 2026-05-07 22:03 | 34.79391 | -104.48111 | 34976 ft | 475 kts | 107° |
| 2026-05-07 22:03 | 34.78020 | -104.40238 | 34969 ft | 476 kts | 107° |
| 2026-05-07 22:04 | 34.76639 | -104.32354 | 34952 ft | 476 kts | 107° |
| 2026-05-07 22:04 | 34.75245 | -104.24458 | 34942 ft | 477 kts | 107° |
| 2026-05-07 22:05 | 34.73854 | -104.16621 | 34933 ft | 478 kts | 108° |
| 2026-05-07 22:05 | 34.72437 | -104.08715 | 34924 ft | 479 kts | 108° |
| 2026-05-07 22:06 | 34.71025 | -104.00786 | 34923 ft | 479 kts | 107° |
| 2026-05-07 22:06 | 34.69613 | -103.92863 | 34906 ft | 480 kts | 108° |
| 2026-05-07 22:07 | 34.68188 | -103.84923 | 34914 ft | 482 kts | 109° |
| 2026-05-07 22:07 | 34.66751 | -103.77005 | 34913 ft | 484 kts | 109° |
| 2026-05-07 22:08 | 34.65298 | -103.69000 | 34914 ft | 485 kts | 109° |
| 2026-05-07 22:08 | 34.63834 | -103.60975 | 34930 ft | 486 kts | 109° |
| 2026-05-07 22:09 | 34.62371 | -103.52938 | 34940 ft | 487 kts | 109° |
| 2026-05-07 22:09 | 34.60905 | -103.44903 | 34955 ft | 488 kts | 109° |
| 2026-05-07 22:10 | 34.59426 | -103.36908 | 34945 ft | 489 kts | 109° |
| 2026-05-07 22:10 | 34.57923 | -103.28836 | 34991 ft | 489 kts | 109° |
| 2026-05-07 22:11 | 34.56426 | -103.20772 | 34988 ft | 490 kts | 109° |
| 2026-05-07 22:11 | 34.54926 | -103.12701 | 35033 ft | 490 kts | 109° |
| 2026-05-07 22:12 | 34.53422 | -103.04678 | 35009 ft | 491 kts | 110° |
| 2026-05-07 22:12 | 34.51901 | -102.96589 | 35017 ft | 492 kts | 110° |
| 2026-05-07 22:13 | 34.50377 | -102.88501 | 35018 ft | 492 kts | 110° |
| 2026-05-07 22:13 | 34.48398 | -102.80643 | 35023 ft | 481 kts | 121° |
| 2026-05-07 22:14 | 34.46256 | -102.74411 | 35011 ft | 482 kts | 121° |
| 2026-05-07 22:14 | 34.43687 | -102.66892 | 35016 ft | 483 kts | 121° |
| 2026-05-07 22:15 | 34.41128 | -102.59353 | 35010 ft | 484 kts | 121° |
| 2026-05-07 22:15 | 34.38142 | -102.50603 | 35013 ft | 484 kts | 121° |
| 2026-05-07 22:16 | 34.35977 | -102.44287 | 35010 ft | 484 kts | 121° |
| 2026-05-07 22:16 | 34.33388 | -102.36759 | 34992 ft | 484 kts | 122° |
| 2026-05-07 22:17 | 34.30812 | -102.29283 | 34991 ft | 485 kts | 122° |
| 2026-05-07 22:17 | 34.28207 | -102.21753 | 34998 ft | 485 kts | 122° |
| 2026-05-07 22:18 | 34.24302 | -102.10487 | 35010 ft | 485 kts | 122° |
| 2026-05-07 22:19 | 34.21692 | -102.02972 | 35012 ft | 485 kts | 122° |
| 2026-05-07 22:19 | 34.19074 | -101.95449 | 35024 ft | 485 kts | 122° |
| 2026-05-07 22:20 | 34.16465 | -101.87962 | 35039 ft | 486 kts | 122° |
| 2026-05-07 22:20 | 34.13831 | -101.80443 | 35036 ft | 486 kts | 123° |
| 2026-05-07 22:21 | 34.11191 | -101.72933 | 35048 ft | 486 kts | 123° |
| 2026-05-07 22:21 | 34.08547 | -101.65424 | 35046 ft | 486 kts | 123° |
| 2026-05-07 22:22 | 34.05912 | -101.57950 | 35036 ft | 486 kts | 123° |
| 2026-05-07 22:22 | 34.03258 | -101.50437 | 35023 ft | 486 kts | 123° |
| 2026-05-07 22:23 | 34.00601 | -101.42932 | 35014 ft | 487 kts | 123° |
| 2026-05-07 22:23 | 33.97937 | -101.35424 | 35003 ft | 487 kts | 123° |
| 2026-05-07 22:24 | 33.95269 | -101.27925 | 34973 ft | 487 kts | 123° |
| 2026-05-07 22:24 | 33.92616 | -101.20484 | 34990 ft | 487 kts | 124° |
| 2026-05-07 22:25 | 33.89946 | -101.12993 | 35005 ft | 487 kts | 124° |
| 2026-05-07 22:25 | 33.87273 | -101.05514 | 35010 ft | 486 kts | 124° |
| 2026-05-07 22:26 | 33.84583 | -100.98043 | 35014 ft | 486 kts | 124° |
| 2026-05-07 22:26 | 33.81887 | -100.90575 | 35014 ft | 486 kts | 124° |
| 2026-05-07 22:27 | 33.79216 | -100.83164 | 35017 ft | 486 kts | 124° |
| 2026-05-07 22:27 | 33.76521 | -100.75700 | 35019 ft | 485 kts | 124° |
| 2026-05-07 22:28 | 33.73819 | -100.68255 | 34993 ft | 485 kts | 124° |
| 2026-05-07 22:28 | 33.71138 | -100.60877 | 35007 ft | 485 kts | 124° |
| 2026-05-07 22:29 | 33.68442 | -100.53463 | 35007 ft | 485 kts | 124° |
| 2026-05-07 22:29 | 33.65740 | -100.46034 | 35007 ft | 485 kts | 124° |
| 2026-05-07 22:30 | 33.63029 | -100.38624 | 35005 ft | 485 kts | 125° |
| 2026-05-07 22:30 | 33.60308 | -100.31204 | 35008 ft | 485 kts | 124° |
| 2026-05-07 22:31 | 33.57606 | -100.23846 | 35008 ft | 485 kts | 125° |
| 2026-05-07 22:31 | 33.54874 | -100.16435 | 35001 ft | 485 kts | 125° |
| 2026-05-07 22:32 | 33.52142 | -100.09033 | 34986 ft | 485 kts | 125° |
| 2026-05-07 22:32 | 33.49415 | -100.01639 | 35013 ft | 485 kts | 125° |
| 2026-05-07 22:33 | 33.46675 | -99.94248 | 35019 ft | 485 kts | 125° |
| 2026-05-07 22:33 | 33.43947 | -99.86905 | 35017 ft | 485 kts | 125° |
| 2026-05-07 22:34 | 33.41191 | -99.79524 | 35009 ft | 485 kts | 125° |
| 2026-05-07 22:34 | 33.38434 | -99.72144 | 35019 ft | 485 kts | 125° |
| 2026-05-07 22:35 | 33.35680 | -99.64762 | 35017 ft | 486 kts | 125° |
| 2026-05-07 22:35 | 33.32937 | -99.57427 | 35025 ft | 486 kts | 125° |
| 2026-05-07 22:36 | 33.30160 | -99.50057 | 35010 ft | 485 kts | 126° |
| 2026-05-07 22:36 | 33.27398 | -99.42737 | 35024 ft | 485 kts | 126° |
| 2026-05-07 22:37 | 33.24623 | -99.35379 | 35030 ft | 485 kts | 126° |
| 2026-05-07 22:37 | 33.21845 | -99.28027 | 35034 ft | 485 kts | 126° |
| 2026-05-07 22:38 | 33.19065 | -99.20687 | 35042 ft | 485 kts | 126° |
| 2026-05-07 22:38 | 33.16300 | -99.13394 | 35044 ft | 484 kts | 126° |
| 2026-05-07 22:39 | 33.13513 | -99.06068 | 35040 ft | 484 kts | 126° |
| 2026-05-07 22:39 | 33.10726 | -98.98752 | 35038 ft | 484 kts | 126° |
| 2026-05-07 22:40 | 33.07933 | -98.91433 | 35044 ft | 484 kts | 126° |
| 2026-05-07 22:40 | 33.05146 | -98.84170 | 35050 ft | 484 kts | 126° |
| 2026-05-07 22:41 | 33.02334 | -98.76863 | 35054 ft | 485 kts | 126° |
| 2026-05-07 22:41 | 32.99547 | -98.69542 | 35052 ft | 485 kts | 126° |
| 2026-05-07 22:42 | 32.96756 | -98.62205 | 35036 ft | 486 kts | 126° |
| 2026-05-07 22:42 | 32.93936 | -98.54875 | 35032 ft | 487 kts | 126° |
| 2026-05-07 22:43 | 32.91115 | -98.47543 | 35040 ft | 487 kts | 126° |
| 2026-05-07 22:43 | 32.88306 | -98.40250 | 35047 ft | 488 kts | 126° |
| 2026-05-07 22:44 | 32.85486 | -98.32914 | 35039 ft | 487 kts | 126° |
| 2026-05-07 22:44 | 32.82652 | -98.25592 | 35053 ft | 487 kts | 126° |
| 2026-05-07 22:45 | 32.79807 | -98.18268 | 35063 ft | 487 kts | 126° |
| 2026-05-07 22:45 | 32.76964 | -98.10949 | 35069 ft | 487 kts | 126° |
| 2026-05-07 22:46 | 32.74141 | -98.03685 | 35072 ft | 487 kts | 126° |
| 2026-05-07 22:46 | 32.71286 | -97.96389 | 35066 ft | 486 kts | 126° |
| 2026-05-07 22:47 | 32.68327 | -97.89178 | 35055 ft | 486 kts | 127° |
| 2026-05-07 22:47 | 32.65311 | -97.81983 | 35052 ft | 486 kts | 127° |
| 2026-05-07 22:48 | 32.62312 | -97.74775 | 35045 ft | 487 kts | 127° |
| 2026-05-07 22:48 | 32.59338 | -97.67550 | 35059 ft | 487 kts | 127° |
| 2026-05-07 22:49 | 32.56379 | -97.60375 | 35061 ft | 486 kts | 127° |
| 2026-05-07 22:49 | 32.53390 | -97.53170 | 35053 ft | 486 kts | 127° |
| 2026-05-07 22:50 | 32.50391 | -97.45968 | 35082 ft | 487 kts | 127° |
| 2026-05-07 22:50 | 32.47406 | -97.38819 | 35089 ft | 487 kts | 127° |
| 2026-05-07 22:51 | 32.44402 | -97.31627 | 35090 ft | 487 kts | 127° |
| 2026-05-07 22:51 | 32.41397 | -97.24432 | 35084 ft | 486 kts | 127° |
| 2026-05-07 22:52 | 32.38412 | -97.17299 | 35084 ft | 485 kts | 126° |
| 2026-05-07 22:52 | 32.35406 | -97.10143 | 35092 ft | 484 kts | 126° |
| 2026-05-07 22:53 | 32.32428 | -97.03063 | 35090 ft | 483 kts | 126° |
| 2026-05-07 22:53 | 32.29424 | -96.95959 | 35094 ft | 482 kts | 126° |
| 2026-05-07 22:54 | 32.26300 | -96.88970 | 35093 ft | 478 kts | 130° |
| 2026-05-07 22:54 | 32.22936 | -96.82215 | 35084 ft | 476 kts | 131° |
| 2026-05-07 22:55 | 32.19536 | -96.75559 | 35066 ft | 477 kts | 130° |
| 2026-05-07 22:55 | 32.16150 | -96.68784 | 35055 ft | 479 kts | 129° |
| 2026-05-07 22:56 | 32.12793 | -96.61960 | 35063 ft | 481 kts | 129° |
| 2026-05-07 22:56 | 32.09419 | -96.55114 | 35079 ft | 482 kts | 129° |
| 2026-05-07 22:57 | 32.06058 | -96.48322 | 35085 ft | 482 kts | 130° |
| 2026-05-07 22:57 | 32.02659 | -96.41487 | 35064 ft | 483 kts | 129° |
| 2026-05-07 22:58 | 31.99238 | -96.34627 | 35061 ft | 485 kts | 129° |
| 2026-05-07 22:58 | 31.95830 | -96.27796 | 35062 ft | 486 kts | 129° |
| 2026-05-07 22:59 | 31.92402 | -96.20928 | 35064 ft | 487 kts | 129° |
| 2026-05-07 22:59 | 31.88956 | -96.14047 | 35050 ft | 487 kts | 129° |
| 2026-05-07 23:00 | 31.85524 | -96.07224 | 35048 ft | 487 kts | 130° |
| 2026-05-07 23:00 | 31.82064 | -96.00338 | 35059 ft | 488 kts | 130° |
| 2026-05-07 23:01 | 31.78606 | -95.93464 | 35072 ft | 488 kts | 130° |
| 2026-05-07 23:01 | 31.75162 | -95.86636 | 35082 ft | 488 kts | 130° |
| 2026-05-07 23:02 | 31.71695 | -95.79771 | 35089 ft | 488 kts | 130° |
| 2026-05-07 23:02 | 31.68225 | -95.72925 | 35091 ft | 488 kts | 130° |
| 2026-05-07 23:03 | 31.65338 | -95.67233 | 35081 ft | 487 kts | 130° |
| 2026-05-07 23:03 | 31.61312 | -95.59301 | 35069 ft | 486 kts | 130° |
| 2026-05-07 23:04 | 31.58431 | -95.53649 | 35068 ft | 485 kts | 130° |
| 2026-05-07 23:04 | 31.54964 | -95.46857 | 35073 ft | 484 kts | 130° |
| 2026-05-07 23:05 | 31.51508 | -95.40077 | 35073 ft | 484 kts | 130° |
| 2026-05-07 23:05 | 31.48046 | -95.33310 | 35070 ft | 484 kts | 130° |
| 2026-05-07 23:06 | 31.44580 | -95.26548 | 35058 ft | 484 kts | 130° |
| 2026-05-07 23:06 | 31.41112 | -95.19783 | 35020 ft | 485 kts | 130° |
| 2026-05-07 23:07 | 31.37629 | -95.13001 | 35036 ft | 485 kts | 130° |
| 2026-05-07 23:07 | 31.34156 | -95.06271 | 35049 ft | 486 kts | 130° |
| 2026-05-07 23:08 | 31.30652 | -94.99494 | 35053 ft | 486 kts | 130° |
| 2026-05-07 23:08 | 31.27151 | -94.92734 | 35054 ft | 486 kts | 130° |
| 2026-05-07 23:09 | 31.23646 | -94.85955 | 35062 ft | 488 kts | 130° |
| 2026-05-07 23:09 | 31.20132 | -94.79171 | 35068 ft | 488 kts | 130° |
| 2026-05-07 23:10 | 31.16642 | -94.72425 | 35071 ft | 490 kts | 128° |
| 2026-05-07 23:10 | 31.13745 | -94.65119 | 35025 ft | 497 kts | 122° |
| 2026-05-07 23:11 | 31.10949 | -94.57737 | 35046 ft | 496 kts | 122° |
| 2026-05-07 23:11 | 31.08139 | -94.50373 | 35049 ft | 496 kts | 122° |
| 2026-05-07 23:12 | 31.05337 | -94.43030 | 35050 ft | 495 kts | 122° |
| 2026-05-07 23:12 | 31.02543 | -94.35731 | 35044 ft | 495 kts | 122° |
| 2026-05-07 23:13 | 30.99733 | -94.28411 | 35047 ft | 495 kts | 122° |
| 2026-05-07 23:13 | 30.96916 | -94.21065 | 35046 ft | 495 kts | 122° |
| 2026-05-07 23:14 | 30.94103 | -94.13749 | 35047 ft | 494 kts | 122° |
| 2026-05-07 23:14 | 30.91296 | -94.06487 | 35075 ft | 494 kts | 122° |
| 2026-05-07 23:15 | 30.88473 | -93.99175 | 35034 ft | 494 kts | 122° |
| 2026-05-07 23:15 | 30.85658 | -93.91888 | 35049 ft | 493 kts | 122° |
| 2026-05-07 23:16 | 30.82829 | -93.84595 | 35051 ft | 493 kts | 122° |
| 2026-05-07 23:16 | 30.80001 | -93.77318 | 35048 ft | 493 kts | 122° |
| 2026-05-07 23:17 | 30.77184 | -93.70100 | 35039 ft | 492 kts | 122° |
| 2026-05-07 23:17 | 30.74347 | -93.62844 | 35042 ft | 492 kts | 122° |
| 2026-05-07 23:18 | 30.71518 | -93.55595 | 35045 ft | 492 kts | 122° |
| 2026-05-07 23:18 | 30.68678 | -93.48346 | 35045 ft | 492 kts | 122° |
| 2026-05-07 23:19 | 30.65828 | -93.41097 | 35045 ft | 493 kts | 122° |
| 2026-05-07 23:19 | 30.62997 | -93.33913 | 35049 ft | 493 kts | 122° |
| 2026-05-07 23:20 | 30.60140 | -93.26667 | 35051 ft | 493 kts | 122° |
| 2026-05-07 23:20 | 30.57281 | -93.19421 | 35063 ft | 493 kts | 122° |
| 2026-05-07 23:21 | 30.54438 | -93.12217 | 35065 ft | 493 kts | 122° |
| 2026-05-07 23:21 | 30.51577 | -93.04989 | 35072 ft | 492 kts | 122° |
| 2026-05-07 23:22 | 30.48709 | -92.97787 | 35080 ft | 492 kts | 122° |
| 2026-05-07 23:22 | 30.45855 | -92.90629 | 35070 ft | 491 kts | 122° |
| 2026-05-07 23:23 | 30.42983 | -92.83439 | 35060 ft | 491 kts | 122° |
| 2026-05-07 23:23 | 30.40112 | -92.76254 | 35060 ft | 490 kts | 122° |
| 2026-05-07 23:24 | 30.37251 | -92.69120 | 35057 ft | 490 kts | 122° |
| 2026-05-07 23:24 | 30.34379 | -92.61955 | 35035 ft | 489 kts | 122° |
| 2026-05-07 23:25 | 30.31514 | -92.54814 | 35044 ft | 489 kts | 122° |
| 2026-05-07 23:25 | 30.28636 | -92.47679 | 35050 ft | 489 kts | 122° |
| 2026-05-07 23:26 | 30.25759 | -92.40559 | 35044 ft | 488 kts | 122° |
| 2026-05-07 23:26 | 30.22883 | -92.33430 | 35043 ft | 489 kts | 122° |
| 2026-05-07 23:27 | 30.18575 | -92.22756 | 35042 ft | 488 kts | 123° |
| 2026-05-07 23:27 | 30.15522 | -92.15792 | 35041 ft | 484 kts | 126° |
| 2026-05-07 23:28 | 30.12261 | -92.08983 | 35040 ft | 483 kts | 127° |
| 2026-05-07 23:28 | 30.09008 | -92.02194 | 35020 ft | 483 kts | 126° |
| 2026-05-07 23:29 | 30.05834 | -91.95408 | 35027 ft | 483 kts | 125° |
| 2026-05-07 23:29 | 30.02661 | -91.88569 | 35023 ft | 483 kts | 125° |
| 2026-05-07 23:30 | 29.99488 | -91.81746 | 35020 ft | 482 kts | 126° |
| 2026-05-07 23:30 | 29.96299 | -91.74945 | 35020 ft | 482 kts | 126° |
| 2026-05-07 23:31 | 29.93101 | -91.68141 | 35018 ft | 482 kts | 126° |
| 2026-05-07 23:31 | 29.89907 | -91.61341 | 35022 ft | 482 kts | 126° |
| 2026-05-07 23:32 | 29.86729 | -91.54587 | 35026 ft | 482 kts | 126° |
| 2026-05-07 23:32 | 29.83499 | -91.47749 | 35031 ft | 483 kts | 126° |
| 2026-05-07 23:33 | 29.80312 | -91.40999 | 34998 ft | 483 kts | 126° |
| 2026-05-07 23:33 | 29.77089 | -91.34198 | 35012 ft | 483 kts | 126° |
| 2026-05-07 23:34 | 29.73867 | -91.27409 | 35023 ft | 484 kts | 126° |
| 2026-05-07 23:34 | 29.70638 | -91.20610 | 35024 ft | 484 kts | 126° |
| 2026-05-07 23:35 | 29.67413 | -91.13816 | 35028 ft | 484 kts | 126° |
| 2026-05-07 23:35 | 29.64178 | -91.07033 | 35028 ft | 483 kts | 126° |
| 2026-05-07 23:36 | 29.60939 | -91.00269 | 35026 ft | 483 kts | 126° |
| 2026-05-07 23:36 | 29.57701 | -90.93501 | 35029 ft | 483 kts | 126° |
| 2026-05-07 23:37 | 29.54478 | -90.86768 | 35032 ft | 483 kts | 126° |
| 2026-05-07 23:37 | 29.51238 | -90.80010 | 35015 ft | 481 kts | 127° |
| 2026-05-07 23:38 | 29.48015 | -90.73291 | 35007 ft | 480 kts | 126° |
| 2026-05-07 23:38 | 29.44787 | -90.66591 | 35008 ft | 480 kts | 126° |
| 2026-05-07 23:39 | 29.41545 | -90.59884 | 35016 ft | 480 kts | 126° |
| 2026-05-07 23:39 | 29.38314 | -90.53195 | 35021 ft | 480 kts | 126° |
| 2026-05-07 23:40 | 29.35096 | -90.46548 | 35021 ft | 480 kts | 126° |
| 2026-05-07 23:40 | 29.31859 | -90.39856 | 35025 ft | 480 kts | 126° |
| 2026-05-07 23:41 | 29.28624 | -90.33173 | 35023 ft | 480 kts | 126° |
| 2026-05-07 23:41 | 29.25371 | -90.26494 | 35023 ft | 479 kts | 126° |
| 2026-05-07 23:42 | 29.22121 | -90.19839 | 35012 ft | 479 kts | 126° |
| 2026-05-07 23:42 | 29.18868 | -90.13174 | 35015 ft | 478 kts | 126° |
| 2026-05-07 23:43 | 29.16006 | -90.06314 | 35012 ft | 483 kts | 118° |
| 2026-05-07 23:43 | 29.13366 | -89.99228 | 35009 ft | 483 kts | 119° |
| 2026-05-07 23:44 | 29.10707 | -89.92166 | 35006 ft | 483 kts | 119° |
| 2026-05-07 23:44 | 29.08050 | -89.85104 | 35009 ft | 483 kts | 118° |
| 2026-05-07 23:45 | 29.05402 | -89.78048 | 35012 ft | 483 kts | 118° |
| 2026-05-07 23:45 | 29.02754 | -89.70998 | 35012 ft | 483 kts | 119° |
| 2026-05-07 23:46 | 29.00115 | -89.64001 | 35009 ft | 483 kts | 119° |
| 2026-05-07 23:46 | 28.97437 | -89.56911 | 35009 ft | 483 kts | 119° |
| 2026-05-07 23:47 | 28.94793 | -89.49925 | 34997 ft | 482 kts | 118° |
| 2026-05-07 23:47 | 28.92129 | -89.42897 | 35008 ft | 482 kts | 118° |
| 2026-05-07 23:48 | 28.89462 | -89.35870 | 35010 ft | 482 kts | 119° |
| 2026-05-07 23:48 | 28.86793 | -89.28854 | 35013 ft | 482 kts | 119° |
| 2026-05-07 23:49 | 28.84117 | -89.21832 | 35011 ft | 482 kts | 118° |
| 2026-05-07 23:49 | 28.81442 | -89.14827 | 35014 ft | 482 kts | 119° |
| 2026-05-07 23:50 | 28.78764 | -89.07833 | 35022 ft | 481 kts | 119° |
| 2026-05-07 23:50 | 28.76539 | -89.02017 | 35016 ft | 481 kts | 119° |
| 2026-05-07 23:51 | 28.73853 | -88.95018 | 35020 ft | 481 kts | 119° |
| 2026-05-07 23:51 | 28.71170 | -88.88035 | 35018 ft | 481 kts | 119° |
| 2026-05-07 23:52 | 28.68475 | -88.81052 | 35012 ft | 481 kts | 119° |
| 2026-05-07 23:52 | 28.65778 | -88.74072 | 34995 ft | 481 kts | 119° |
| 2026-05-07 23:53 | 28.63082 | -88.67098 | 35011 ft | 481 kts | 118° |
| 2026-05-07 23:53 | 28.60389 | -88.60141 | 35017 ft | 480 kts | 118° |
| 2026-05-07 23:54 | 28.57688 | -88.53183 | 35018 ft | 480 kts | 118° |
| 2026-05-07 23:54 | 28.54993 | -88.46235 | 35017 ft | 480 kts | 118° |
| 2026-05-07 23:55 | 28.52309 | -88.39347 | 35021 ft | 479 kts | 119° |
| 2026-05-07 23:55 | 28.49604 | -88.32431 | 35021 ft | 478 kts | 119° |
| 2026-05-07 23:56 | 28.46900 | -88.25524 | 35021 ft | 478 kts | 119° |
| 2026-05-07 23:56 | 28.44200 | -88.18617 | 35020 ft | 478 kts | 119° |
| 2026-05-07 23:57 | 28.41496 | -88.11711 | 35020 ft | 478 kts | 119° |
| 2026-05-07 23:57 | 28.38781 | -88.04812 | 35012 ft | 479 kts | 118° |
| 2026-05-07 23:58 | 28.36574 | -87.97627 | 35009 ft | 483 kts | 112° |
| 2026-05-07 23:58 | 28.34478 | -87.90392 | 35004 ft | 482 kts | 113° |
| 2026-05-07 23:59 | 28.32384 | -87.83167 | 35011 ft | 482 kts | 112° |
| 2026-05-07 23:59 | 28.30296 | -87.75944 | 35013 ft | 481 kts | 112° |
| 2026-05-08 00:00 | 28.28204 | -87.68723 | 35009 ft | 482 kts | 112° |
| 2026-05-08 00:00 | 28.26121 | -87.61540 | 35009 ft | 483 kts | 111° |
| 2026-05-08 00:01 | 28.24006 | -87.54293 | 35017 ft | 484 kts | 112° |
| 2026-05-08 00:01 | 28.21888 | -87.47039 | 35020 ft | 484 kts | 112° |
| 2026-05-08 00:02 | 28.19768 | -87.39796 | 35020 ft | 484 kts | 112° |
| 2026-05-08 00:02 | 28.17646 | -87.32538 | 35016 ft | 484 kts | 111° |
| 2026-05-08 00:03 | 28.15514 | -87.25294 | 35012 ft | 485 kts | 112° |
| 2026-05-08 00:03 | 28.13373 | -87.18053 | 35015 ft | 485 kts | 112° |
| 2026-05-08 00:04 | 28.11232 | -87.10807 | 35016 ft | 485 kts | 112° |
| 2026-05-08 00:04 | 28.09099 | -87.03602 | 35023 ft | 485 kts | 112° |
| 2026-05-08 00:05 | 28.06954 | -86.96353 | 35033 ft | 485 kts | 112° |
| 2026-05-08 00:05 | 28.04801 | -86.89118 | 35035 ft | 485 kts | 112° |
| 2026-05-08 00:06 | 28.02647 | -86.81875 | 35026 ft | 485 kts | 111° |
| 2026-05-08 00:06 | 28.00491 | -86.74659 | 35023 ft | 484 kts | 111° |
| 2026-05-08 00:07 | 27.98378 | -86.67422 | 35030 ft | 484 kts | 111° |
| 2026-05-08 00:07 | 27.96308 | -86.60186 | 35033 ft | 483 kts | 111° |
| 2026-05-08 00:08 | 27.94227 | -86.52952 | 35024 ft | 483 kts | 111° |
| 2026-05-08 00:08 | 27.92132 | -86.45729 | 35033 ft | 483 kts | 111° |
| 2026-05-08 00:09 | 27.90029 | -86.38518 | 35032 ft | 483 kts | 111° |
| 2026-05-08 00:09 | 27.87934 | -86.31355 | 35034 ft | 483 kts | 111° |
| 2026-05-08 00:10 | 27.85826 | -86.24147 | 35032 ft | 483 kts | 111° |
| 2026-05-08 00:10 | 27.83703 | -86.16944 | 35029 ft | 483 kts | 111° |
| 2026-05-08 00:11 | 27.81585 | -86.09735 | 35029 ft | 483 kts | 111° |
| 2026-05-08 00:11 | 27.79467 | -86.02525 | 35033 ft | 483 kts | 111° |
| 2026-05-08 00:12 | 27.77335 | -85.95318 | 35032 ft | 484 kts | 111° |
| 2026-05-08 00:12 | 27.75215 | -85.88163 | 35030 ft | 484 kts | 111° |
| 2026-05-08 00:13 | 27.73084 | -85.80963 | 35031 ft | 484 kts | 111° |
| 2026-05-08 00:13 | 27.70943 | -85.73761 | 35033 ft | 484 kts | 111° |
| 2026-05-08 00:14 | 27.68802 | -85.66559 | 35030 ft | 484 kts | 111° |
| 2026-05-08 00:14 | 27.66661 | -85.59360 | 35034 ft | 484 kts | 111° |
| 2026-05-08 00:15 | 27.64507 | -85.52174 | 35039 ft | 484 kts | 111° |
| 2026-05-08 00:15 | 27.62351 | -85.44964 | 35032 ft | 484 kts | 111° |
| 2026-05-08 00:16 | 27.60188 | -85.37779 | 35038 ft | 484 kts | 112° |
| 2026-05-08 00:16 | 27.58480 | -85.30475 | 35034 ft | 486 kts | 103° |
| 2026-05-08 00:17 | 27.57196 | -85.22987 | 35039 ft | 486 kts | 103° |
| 2026-05-08 00:17 | 27.55894 | -85.15498 | 35036 ft | 486 kts | 103° |
| 2026-05-08 00:18 | 27.54575 | -85.08022 | 35044 ft | 486 kts | 103° |
| 2026-05-08 00:18 | 27.53271 | -85.00537 | 35038 ft | 486 kts | 103° |
| 2026-05-08 00:19 | 27.51966 | -84.93068 | 35041 ft | 486 kts | 103° |
| 2026-05-08 00:19 | 27.50648 | -84.85601 | 35037 ft | 486 kts | 103° |
| 2026-05-08 00:20 | 27.49324 | -84.78135 | 35040 ft | 486 kts | 103° |
| 2026-05-08 00:20 | 27.47992 | -84.70680 | 35044 ft | 486 kts | 103° |
| 2026-05-08 00:21 | 27.46654 | -84.63223 | 35044 ft | 485 kts | 103° |
| 2026-05-08 00:21 | 27.45323 | -84.55775 | 35042 ft | 485 kts | 103° |
| 2026-05-08 00:22 | 27.43998 | -84.48380 | 35044 ft | 485 kts | 103° |
| 2026-05-08 00:22 | 27.42645 | -84.40946 | 35046 ft | 485 kts | 103° |
| 2026-05-08 00:23 | 27.42078 | -84.33368 | 35048 ft | 487 kts | 92° |
| 2026-05-08 00:23 | 27.41898 | -84.25753 | 35047 ft | 487 kts | 92° |
| 2026-05-08 00:24 | 27.41678 | -84.18139 | 35053 ft | 486 kts | 92° |
| 2026-05-08 00:24 | 27.41451 | -84.10527 | 35053 ft | 486 kts | 92° |
| 2026-05-08 00:25 | 27.41225 | -84.02921 | 35055 ft | 486 kts | 92° |
| 2026-05-08 00:25 | 27.41002 | -83.95317 | 35055 ft | 486 kts | 92° |
| 2026-05-08 00:26 | 27.40777 | -83.87705 | 35056 ft | 486 kts | 92° |
| 2026-05-08 00:26 | 27.40546 | -83.80107 | 35057 ft | 486 kts | 92° |
| 2026-05-08 00:27 | 27.40321 | -83.72510 | 35057 ft | 486 kts | 92° |
| 2026-05-08 00:27 | 27.40085 | -83.64961 | 35057 ft | 486 kts | 92° |
| 2026-05-08 00:28 | 27.39831 | -83.57366 | 35057 ft | 486 kts | 92° |
| 2026-05-08 00:28 | 27.39579 | -83.49770 | 35055 ft | 485 kts | 92° |
| 2026-05-08 00:29 | 27.39324 | -83.42190 | 35057 ft | 485 kts | 92° |
| 2026-05-08 00:29 | 27.39077 | -83.34612 | 35056 ft | 484 kts | 92° |
| 2026-05-08 00:30 | 27.38821 | -83.27031 | 35056 ft | 484 kts | 92° |
| 2026-05-08 00:30 | 27.38565 | -83.19448 | 35056 ft | 484 kts | 92° |
| 2026-05-08 00:31 | 27.37919 | -83.11926 | 35054 ft | 482 kts | 105° |
| 2026-05-08 00:31 | 27.36032 | -83.04711 | 35058 ft | 481 kts | 109° |
| 2026-05-08 00:32 | 27.34100 | -82.97512 | 35045 ft | 482 kts | 109° |
| 2026-05-08 00:32 | 27.33139 | -82.93901 | 34814 ft | 490 kts | 108° |
| 2026-05-08 00:32 | 27.32161 | -82.90224 | 34583 ft | 491 kts | 109° |
| 2026-05-08 00:33 | 27.31184 | -82.86557 | 34289 ft | 488 kts | 109° |
| 2026-05-08 00:33 | 27.30207 | -82.82894 | 33705 ft | 489 kts | 109° |
| 2026-05-08 00:33 | 27.29208 | -82.79244 | 33168 ft | 486 kts | 112° |
| 2026-05-08 00:33 | 27.27871 | -82.75792 | 32760 ft | 477 kts | 119° |
| 2026-05-08 00:34 | 27.26394 | -82.72473 | 32513 ft | 473 kts | 119° |
| 2026-05-08 00:34 | 27.24938 | -82.69171 | 32283 ft | 470 kts | 119° |
| 2026-05-08 00:34 | 27.23495 | -82.65881 | 32032 ft | 468 kts | 118° |
| 2026-05-08 00:34 | 27.22057 | -82.62605 | 31788 ft | 467 kts | 119° |
| 2026-05-08 00:35 | 27.20621 | -82.59338 | 31549 ft | 465 kts | 119° |
| 2026-05-08 00:35 | 27.19186 | -82.56080 | 31312 ft | 464 kts | 119° |
| 2026-05-08 00:35 | 27.17757 | -82.52845 | 31074 ft | 462 kts | 119° |
| 2026-05-08 00:35 | 27.16329 | -82.49618 | 30834 ft | 461 kts | 119° |
| 2026-05-08 00:36 | 27.14903 | -82.46400 | 30602 ft | 459 kts | 119° |
| 2026-05-08 00:36 | 27.13483 | -82.43202 | 30373 ft | 458 kts | 119° |
| 2026-05-08 00:36 | 27.12077 | -82.40038 | 30147 ft | 456 kts | 119° |
| 2026-05-08 00:36 | 27.10667 | -82.36858 | 29884 ft | 455 kts | 118° |
| 2026-05-08 00:37 | 27.09257 | -82.33680 | 29617 ft | 453 kts | 118° |
| 2026-05-08 00:37 | 27.07858 | -82.30528 | 29346 ft | 451 kts | 119° |
| 2026-05-08 00:37 | 27.06457 | -82.27381 | 29088 ft | 449 kts | 119° |
| 2026-05-08 00:38 | 27.04139 | -82.22187 | 28653 ft | 446 kts | 119° |
| 2026-05-08 00:38 | 27.02751 | -82.19083 | 28407 ft | 444 kts | 119° |
| 2026-05-08 00:38 | 27.01364 | -82.15984 | 28153 ft | 443 kts | 119° |
| 2026-05-08 00:38 | 26.99979 | -82.12894 | 27901 ft | 441 kts | 119° |
| 2026-05-08 00:39 | 26.98608 | -82.09829 | 27653 ft | 439 kts | 119° |
| 2026-05-08 00:39 | 26.97229 | -82.06768 | 27405 ft | 437 kts | 121° |
| 2026-05-08 00:39 | 26.95629 | -82.03939 | 27161 ft | 432 kts | 130° |
| 2026-05-08 00:39 | 26.93685 | -82.01403 | 26908 ft | 427 kts | 137° |
| 2026-05-08 00:40 | 26.91645 | -81.99001 | 26662 ft | 425 kts | 137° |
| 2026-05-08 00:40 | 26.89614 | -81.96602 | 26424 ft | 423 kts | 137° |
| 2026-05-08 00:40 | 26.87597 | -81.94215 | 26185 ft | 421 kts | 137° |
| 2026-05-08 00:40 | 26.85584 | -81.91833 | 25943 ft | 420 kts | 137° |
| 2026-05-08 00:41 | 26.83582 | -81.89466 | 26012 ft | 418 kts | 137° |
| 2026-05-08 00:41 | 26.81570 | -81.87094 | 26049 ft | 420 kts | 137° |
| 2026-05-08 00:41 | 26.79558 | -81.84729 | 26049 ft | 420 kts | 137° |
| 2026-05-08 00:41 | 26.77544 | -81.82360 | 26047 ft | 420 kts | 137° |
| 2026-05-08 00:42 | 26.75526 | -81.79989 | 25894 ft | 420 kts | 137° |
| 2026-05-08 00:42 | 26.73535 | -81.77663 | 25557 ft | 419 kts | 137° |
| 2026-05-08 00:42 | 26.71510 | -81.75314 | 25091 ft | 419 kts | 137° |
| 2026-05-08 00:42 | 26.69485 | -81.72971 | 24688 ft | 417 kts | 137° |
| 2026-05-08 00:43 | 26.67468 | -81.70634 | 24210 ft | 418 kts | 137° |
| 2026-05-08 00:43 | 26.65471 | -81.68313 | 23891 ft | 410 kts | 137° |
| 2026-05-08 00:43 | 26.63508 | -81.66020 | 23167 ft | 406 kts | 135° |
| 2026-05-08 00:43 | 26.61772 | -81.63563 | 22630 ft | 401 kts | 129° |
| 2026-05-08 00:44 | 26.60110 | -81.61076 | 22196 ft | 398 kts | 129° |
| 2026-05-08 00:44 | 26.58445 | -81.58600 | 21730 ft | 395 kts | 129° |
| 2026-05-08 00:44 | 26.56807 | -81.56170 | 21259 ft | 390 kts | 129° |
| 2026-05-08 00:44 | 26.55180 | -81.53758 | 20814 ft | 387 kts | 129° |
| 2026-05-08 00:45 | 26.53571 | -81.51372 | 20375 ft | 383 kts | 129° |
| 2026-05-08 00:45 | 26.51973 | -81.49002 | 19924 ft | 380 kts | 129° |
| 2026-05-08 00:45 | 26.50385 | -81.46646 | 19485 ft | 377 kts | 128° |
| 2026-05-08 00:45 | 26.48833 | -81.44345 | 19068 ft | 375 kts | 128° |
| 2026-05-08 00:46 | 26.47261 | -81.42017 | 18623 ft | 375 kts | 128° |
| 2026-05-08 00:46 | 26.45698 | -81.39706 | 18293 ft | 371 kts | 128° |
| 2026-05-08 00:46 | 26.44144 | -81.37407 | 17799 ft | 367 kts | 128° |
| 2026-05-08 00:46 | 26.42622 | -81.35152 | 17261 ft | 359 kts | 128° |
| 2026-05-08 00:47 | 26.41122 | -81.32933 | 16865 ft | 356 kts | 129° |
| 2026-05-08 00:47 | 26.39592 | -81.30773 | 16455 ft | 353 kts | 130° |
| 2026-05-08 00:47 | 26.38034 | -81.28676 | 16050 ft | 349 kts | 131° |
| 2026-05-08 00:47 | 26.36469 | -81.26619 | 15649 ft | 346 kts | 131° |
| 2026-05-08 00:48 | 26.34910 | -81.24580 | 15242 ft | 345 kts | 131° |
| 2026-05-08 00:48 | 26.33358 | -81.22540 | 14876 ft | 344 kts | 131° |
| 2026-05-08 00:48 | 26.31823 | -81.20508 | 14515 ft | 341 kts | 131° |
| 2026-05-08 00:48 | 26.30302 | -81.18485 | 14222 ft | 338 kts | 131° |
| 2026-05-08 00:49 | 26.28802 | -81.16484 | 13902 ft | 335 kts | 131° |
| 2026-05-08 00:49 | 26.27311 | -81.14503 | 13577 ft | 332 kts | 131° |
| 2026-05-08 00:49 | 26.25832 | -81.12552 | 13143 ft | 327 kts | 131° |
| 2026-05-08 00:49 | 26.24385 | -81.10652 | 12524 ft | 323 kts | 131° |
| 2026-05-08 00:50 | 26.22947 | -81.08765 | 12127 ft | 317 kts | 131° |
| 2026-05-08 00:50 | 26.21521 | -81.06898 | 11763 ft | 315 kts | 131° |
| 2026-05-08 00:50 | 26.20103 | -81.05038 | 11391 ft | 313 kts | 132° |
| 2026-05-08 00:50 | 26.18696 | -81.03192 | 11034 ft | 311 kts | 132° |
| 2026-05-08 00:51 | 26.17303 | -81.01360 | 10682 ft | 309 kts | 132° |
| 2026-05-08 00:51 | 26.15936 | -80.99551 | 10214 ft | 302 kts | 129° |
| 2026-05-08 00:51 | 26.14867 | -80.97569 | 9947 ft | 298 kts | 114° |
| 2026-05-08 00:51 | 26.14269 | -80.95358 | 9573 ft | 298 kts | 101° |
| 2026-05-08 00:52 | 26.13902 | -80.93087 | 9207 ft | 298 kts | 101° |
| 2026-05-08 00:52 | 26.13536 | -80.90850 | 8847 ft | 298 kts | 101° |
| 2026-05-08 00:52 | 26.13158 | -80.88567 | 8459 ft | 292 kts | 101° |
| 2026-05-08 00:52 | 26.12788 | -80.86357 | 8114 ft | 289 kts | 101° |
| 2026-05-08 00:53 | 26.12424 | -80.84188 | 7768 ft | 288 kts | 101° |
| 2026-05-08 00:53 | 26.12059 | -80.82005 | 7419 ft | 286 kts | 101° |
| 2026-05-08 00:53 | 26.11696 | -80.79832 | 7068 ft | 284 kts | 100° |
| 2026-05-08 00:53 | 26.11338 | -80.77681 | 6859 ft | 282 kts | 100° |
| 2026-05-08 00:54 | 26.10980 | -80.75532 | 6725 ft | 282 kts | 100° |
| 2026-05-08 00:54 | 26.10623 | -80.73395 | 6579 ft | 281 kts | 100° |
| 2026-05-08 00:54 | 26.10264 | -80.71258 | 6438 ft | 280 kts | 100° |
| 2026-05-08 00:54 | 26.09906 | -80.69132 | 6280 ft | 279 kts | 99° |
| 2026-05-08 00:55 | 26.09548 | -80.67017 | 6138 ft | 278 kts | 99° |
| 2026-05-08 00:55 | 26.09190 | -80.64907 | 5989 ft | 277 kts | 99° |
| 2026-05-08 00:55 | 26.08835 | -80.62806 | 5845 ft | 276 kts | 100° |
| 2026-05-08 00:55 | 26.08479 | -80.60709 | 5704 ft | 275 kts | 99° |
| 2026-05-08 00:56 | 26.08125 | -80.58624 | 5554 ft | 273 kts | 99° |
| 2026-05-08 00:56 | 26.07773 | -80.56557 | 5415 ft | 272 kts | 100° |
| 2026-05-08 00:56 | 26.07424 | -80.54491 | 5272 ft | 271 kts | 99° |
| 2026-05-08 00:56 | 26.07080 | -80.52442 | 5132 ft | 277 kts | 99° |
| 2026-05-08 00:57 | 26.06761 | -80.50305 | 4985 ft | 280 kts | 92° |
| 2026-05-08 00:57 | 26.06736 | -80.48169 | 4801 ft | 274 kts | 88° |
| 2026-05-08 00:57 | 26.06730 | -80.46071 | 4616 ft | 268 kts | 89° |
| 2026-05-08 00:57 | 26.06721 | -80.44022 | 4436 ft | 262 kts | 89° |
| 2026-05-08 00:58 | 26.06713 | -80.42021 | 4305 ft | 254 kts | 89° |
| 2026-05-08 00:58 | 26.06705 | -80.40071 | 4060 ft | 251 kts | 89° |
| 2026-05-08 00:58 | 26.06698 | -80.38129 | 3754 ft | 251 kts | 89° |
| 2026-05-08 00:58 | 26.06690 | -80.36190 | 3440 ft | 249 kts | 89° |
| 2026-05-08 00:59 | 26.06681 | -80.34297 | 3129 ft | 241 kts | 89° |
| 2026-05-08 00:59 | 26.06673 | -80.32488 | 2827 ft | 233 kts | 90° |
| 2026-05-08 00:59 | 26.06665 | -80.30719 | 2537 ft | 225 kts | 91° |
| 2026-05-08 00:59 | 26.06658 | -80.29018 | 2255 ft | 215 kts | 93° |
| 2026-05-08 01:00 | 26.06651 | -80.27423 | 1997 ft | 197 kts | 92° |
| 2026-05-08 01:00 | 26.06644 | -80.25970 | 1742 ft | 179 kts | 93° |
| 2026-05-08 01:00 | 26.06638 | -80.24652 | 1527 ft | 163 kts | 92° |
| 2026-05-08 01:00 | 26.06632 | -80.23449 | 1323 ft | 149 kts | 92° |
| 2026-05-08 01:01 | 26.06625 | -80.22340 | 1145 ft | 137 kts | 94° |
| 2026-05-08 01:01 | 26.06620 | -80.21318 | 977 ft | 129 kts | 95° |
| 2026-05-08 01:01 | 26.06614 | -80.20322 | 830 ft | 132 kts | 94° |
| 2026-05-08 01:01 | 26.06607 | -80.19282 | 666 ft | 135 kts | 91° |
| 2026-05-08 01:02 | 26.06602 | -80.18255 | 483 ft | 132 kts | 94° |
| 2026-05-08 01:02 | 26.06596 | -80.17245 | 335 ft | 128 kts | 90° |
| 2026-05-08 01:02 | 26.06596 | -80.16258 | 145 ft | 129 kts | 92° |
| 2026-05-08 01:02 | 26.06593 | -80.15271 | 27 ft | 119 kts | 96° |
| 2026-05-08 01:03 | 26.06581 | -80.14523 | 50 ft | 72 kts | 91° |
| 2026-05-08 01:03 | 26.06578 | -80.14117 | 74 ft | 43 kts | 90° |
| 2026-05-08 01:03 | 26.06582 | -80.13872 | 75 ft | 24 kts | 79° |
| 2026-05-08 01:03 | 26.06665 | -80.13736 | 75 ft | 14 kts | 45° |
| 2026-05-08 01:04 | 26.06742 | -80.13759 | 73 ft | 15 kts | 284° |
| 2026-05-08 01:04 | 26.06742 | -80.13882 | 75 ft | 17 kts | 270° |
| 2026-05-08 01:04 | 26.06743 | -80.13939 | 69 ft | 14 kts | 271° |
| 2026-05-08 01:04 | 26.06717 | -80.14048 | 67 ft | 16 kts | 240° |
| 2026-05-08 01:05 | 26.06687 | -80.14176 | 67 ft | 19 kts | 270° |
| 2026-05-08 01:05 | 26.06688 | -80.14285 | 60 ft | 14 kts | 270° |
| 2026-05-08 01:05 | 26.06688 | -80.14416 | 55 ft | 20 kts | 271° |
| 2026-05-08 01:05 | 26.06688 | -80.14566 | 46 ft | 17 kts | 271° |
| 2026-05-08 01:06 | 26.06690 | -80.14712 | 38 ft | 18 kts | 270° |
| 2026-05-08 01:06 | 26.06692 | -80.14819 | 31 ft | 14 kts | 274° |
| 2026-05-08 01:06 | 26.06694 | -80.14956 | 16 ft | 16 kts | 270° |
| 2026-05-08 01:06 | 26.06695 | -80.15079 | 16 ft | 15 kts | 270° |
| 2026-05-08 01:07 | 26.06754 | -80.15131 | 16 ft | 13 kts | 359° |
| 2026-05-08 01:07 | 26.06844 | -80.15130 | 16 ft | 12 kts | 1° |
| 2026-05-08 01:07 | 26.06911 | -80.15097 | 16 ft | 12 kts | 80° |
| 2026-05-08 01:07 | 26.06911 | -80.14991 | 16 ft | 14 kts | 90° |
| 2026-05-08 01:08 | 26.06910 | -80.14880 | 16 ft | 16 kts | 90° |
| 2026-05-08 01:08 | 26.06936 | -80.14778 | 17 ft | 10 kts | 49° |
| 2026-05-08 01:08 | 26.06934 | -80.14697 | 16 ft | 12 kts | 93° |
| 2026-05-08 01:08 | 26.06934 | -80.14631 | 16 ft | 4 kts | 90° |
| 2026-05-08 01:09 | 26.06934 | -80.14617 | 16 ft | 1 kts | 89° |
| 2026-05-08 01:09 | 26.06934 | -80.14607 | 16 ft | 1 kts | 89° |
| 2026-05-08 01:09 | 26.06934 | -80.14603 | 16 ft | 1 kts | 89° |
| 2026-05-08 01:09 | 26.06934 | -80.14600 | 16 ft | 0 kts | 89° |
| 2026-05-08 01:10 | 26.06934 | -80.14611 | 17 ft | 0 kts | 90° |